Terminal Aerodrome Forecast
Issued by NWS

Current Version | Previous Version | Text Only | Print | Product List | Glossary On
Versions: 1 2 3 4 5 6 7 8 9 10 11 12 13
000
FTUS45 KTWC 231700
TAFOLS
TAF
KOLS 231723Z 2318/2418 21014G24KT P6SM SKC
     FM231900 24017G27KT P6SM SKC
     FM240300 26007KT P6SM SKC
     FM240600 VRB03KT P6SM SCT250=

USA.gov is the U.S. government's official web portal to all federal, state and local government web resources and services.